Time;durP1;ratioP1;P1;durP2;ratioP2;P2;SDS_P1;SDS_P2;PMS_P1;PMS_P2;Temp;Humidity;BMP_temperature;BMP_pressure;BME280_temperature;BME280_humidity;BME280_pressure;Samples;Min_cycle;Max_cycle;Signal;HPM_P1;HPM_P2
2023/07/26 00:01:19;;;;;;;6.33;5.60;;;;;;;;;;2614137;54;20449;-70
2023/07/26 00:06:48;;;;;;;6.10;5.60;;;;;;;;;;2614038;54;20475;-69
2023/07/26 00:12:18;;;;;;;5.20;4.80;;;;;;;;;;2615495;39;20808;-68
2023/07/26 00:17:50;;;;;;;7.40;5.47;;;;;;;;;;2615022;39;20771;-69
2023/07/26 00:23:20;;;;;;;5.57;5.17;;;;;;;;;;2615241;39;20832;-69
2023/07/26 00:28:49;;;;;;;5.47;5.07;;;;;;;;;;2614968;39;20837;-69
2023/07/26 00:34:19;;;;;;;5.93;5.20;;;;;;;;;;2613988;54;20382;-69
2023/07/26 00:39:49;;;;;;;5.67;5.27;;;;;;;;;;2615227;54;20933;-69
2023/07/26 00:45:21;;;;;;;5.97;5.47;;;;;;;;;;2615114;54;20398;-69
2023/07/26 00:50:51;;;;;;;7.20;5.60;;;;;;;;;;2613646;54;20461;-69
2023/07/26 00:56:24;;;;;;;5.60;5.00;;;;;;;;;;2614882;54;20386;-68
2023/07/26 01:01:54;;;;;;;7.67;4.73;;;;;;;;;;2614804;54;20390;-78
2023/07/26 01:07:24;;;;;;;5.00;4.50;;;;;;;;;;2614481;54;20929;-77
2023/07/26 01:12:55;;;;;;;7.90;4.37;;;;;;;;;;2615228;54;20524;-78
2023/07/26 01:18:24;;;;;;;5.60;5.00;;;;;;;;;;2613786;54;20398;-78
2023/07/26 01:23:54;;;;;;;5.73;5.23;;;;;;;;;;2614206;54;20374;-77
2023/07/26 01:29:24;;;;;;;5.40;5.00;;;;;;;;;;2613261;39;20749;-78
2023/07/26 01:34:54;;;;;;;5.87;5.37;;;;;;;;;;2615292;39;20771;-78
2023/07/26 01:40:29;;;;;;;6.07;5.50;;;;;;;;;;2614119;54;20925;-76
2023/07/26 01:45:59;;;;;;;8.17;5.17;;;;;;;;;;2614252;54;20355;-78
2023/07/26 01:51:38;;;;;;;6.80;5.50;;;;;;;;;;2614353;39;20912;-78
2023/07/26 01:57:07;;;;;;;5.10;4.70;;;;;;;;;;2614542;54;20390;-78
2023/07/26 02:02:42;;;;;;;9.60;5.50;;;;;;;;;;2613673;54;21014;-78
2023/07/26 02:08:17;;;;;;;5.83;5.33;;;;;;;;;;2614623;54;20422;-78
2023/07/26 02:13:46;;;;;;;5.93;5.30;;;;;;;;;;2613596;54;20430;-78
2023/07/26 02:19:16;;;;;;;6.20;5.57;;;;;;;;;;2614732;54;20371;-78
2023/07/26 02:24:46;;;;;;;7.10;5.60;;;;;;;;;;2614280;54;20395;-78
2023/07/26 02:30:16;;;;;;;5.63;5.03;;;;;;;;;;2614866;39;20741;-78
2023/07/26 02:35:45;;;;;;;6.20;5.70;;;;;;;;;;2612510;54;20415;-77
2023/07/26 02:41:18;;;;;;;11.37;5.43;;;;;;;;;;2614943;54;20515;-74
2023/07/26 02:46:47;;;;;;;5.77;5.23;;;;;;;;;;2613935;54;20443;-75
2023/07/26 02:55:49;;;;;;;5.30;4.73;;;;;;;;;;2615097;54;20635;-74
2023/07/26 03:07:16;;;;;;;5.17;4.27;;;;;;;;;;2614112;54;20422;-73
2023/07/26 03:12:48;;;;;;;7.03;3.77;;;;;;;;;;2614138;54;20366;-74
2023/07/26 03:18:20;;;;;;;6.33;4.50;;;;;;;;;;2614055;54;20400;-75
2023/07/26 03:23:51;;;;;;;4.80;3.90;;;;;;;;;;2614516;54;20920;-75
2023/07/26 03:29:20;;;;;;;7.17;5.77;;;;;;;;;;2612960;46;20391;-75
2023/07/26 03:34:50;;;;;;;7.67;6.10;;;;;;;;;;2614244;54;20403;-75
2023/07/26 03:40:22;;;;;;;6.37;5.67;;;;;;;;;;2614352;54;20402;-75
2023/07/26 03:45:55;;;;;;;8.50;5.43;;;;;;;;;;2613786;51;20377;-74
2023/07/26 03:51:24;;;;;;;6.00;5.50;;;;;;;;;;2613307;39;20701;-73
2023/07/26 03:56:54;;;;;;;13.60;5.40;;;;;;;;;;2613964;54;20395;-74
2023/07/26 04:02:23;;;;;;;7.80;7.10;;;;;;;;;;2612720;54;20390;-75
2023/07/26 04:07:56;;;;;;;15.00;7.80;;;;;;;;;;2614271;39;20742;-74
2023/07/26 04:10:41;;;;;;;8.63;6.53;;;;;;;;;;2612278;47;20522;-75
2023/07/26 04:13:07;;;;;;;9.73;8.20;;;;;;;;;;2613348;54;20469;-75
2023/07/26 04:18:36;;;;;;;20.03;7.93;;;;;;;;;;2613803;54;20370;-76
2023/07/26 04:24:06;;;;;;;11.17;9.03;;;;;;;;;;2613627;54;20395;-74
2023/07/26 04:29:36;;;;;;;8.70;7.80;;;;;;;;;;2612872;54;20425;-74
2023/07/26 04:35:06;;;;;;;9.30;8.17;;;;;;;;;;2613229;54;20351;-76
2023/07/26 04:40:39;;;;;;;8.93;8.03;;;;;;;;;;2613417;54;20896;-74
2023/07/26 04:46:12;;;;;;;9.63;7.90;;;;;;;;;;2613387;54;20379;-74
2023/07/26 04:57:48;;;;;;;9.33;6.60;;;;;;;;;;2613873;54;20908;-76
2023/07/26 05:03:18;;;;;;;8.67;7.60;;;;;;;;;;2613736;54;20402;-75
2023/07/26 05:08:48;;;;;;;5.60;5.10;;;;;;;;;;2614078;54;20355;-75
2023/07/26 05:14:23;;;;;;;7.13;5.10;;;;;;;;;;2612676;54;20943;-75
2023/07/26 05:19:53;;;;;;;4.23;3.83;;;;;;;;;;2614778;54;20381;-78
2023/07/26 05:25:22;;;;;;;7.10;4.70;;;;;;;;;;2614498;54;20382;-73
2023/07/26 05:30:56;;;;;;;4.43;4.03;;;;;;;;;;2613716;54;20414;-73
2023/07/26 05:36:26;;;;;;;5.07;4.57;;;;;;;;;;2614894;54;20906;-73
2023/07/26 05:41:55;;;;;;;4.53;4.17;;;;;;;;;;2614476;54;20885;-74
2023/07/26 05:47:25;;;;;;;3.80;3.50;;;;;;;;;;2614285;54;20400;-78
2023/07/26 05:59:02;;;;;;;4.13;3.83;;;;;;;;;;2613723;54;20387;-76
2023/07/26 06:04:32;;;;;;;7.20;4.83;;;;;;;;;;2614113;54;20410;-76
2023/07/26 06:10:02;;;;;;;5.63;4.40;;;;;;;;;;2609771;54;20407;-76
2023/07/26 06:15:32;;;;;;;5.73;4.70;;;;;;;;;;2612659;54;20463;-76
2023/07/26 06:21:01;;;;;;;8.83;5.97;;;;;;;;;;2612731;54;20416;-76
2023/07/26 06:26:31;;;;;;;7.40;6.30;;;;;;;;;;2613511;54;20431;-76
2023/07/26 06:32:01;;;;;;;5.97;5.37;;;;;;;;;;2611550;54;20383;-76
2023/07/26 06:37:32;;;;;;;7.27;5.20;;;;;;;;;;2615038;31;21037;-76
2023/07/26 06:43:01;;;;;;;6.20;5.60;;;;;;;;;;2613352;54;20399;-76
2023/07/26 06:48:31;;;;;;;5.60;5.17;;;;;;;;;;2612887;54;20434;-75
2023/07/26 06:57:41;;;;;;;5.80;5.30;;;;;;;;;;2612509;46;20451;-74
2023/07/26 07:03:10;;;;;;;6.60;6.10;;;;;;;;;;2612970;54;21060;-76
2023/07/26 07:08:40;;;;;;;7.27;6.13;;;;;;;;;;2612014;54;21007;-76
2023/07/26 07:14:10;;;;;;;8.00;7.30;;;;;;;;;;2614669;54;20406;-77
2023/07/26 07:19:39;;;;;;;7.97;7.37;;;;;;;;;;2612618;54;20468;-76
2023/07/26 07:25:09;;;;;;;7.83;7.13;;;;;;;;;;2614174;54;20343;-78
2023/07/26 07:30:39;;;;;;;8.87;8.07;;;;;;;;;;2614095;54;20427;-77
2023/07/26 07:36:10;;;;;;;10.20;9.23;;;;;;;;;;2611150;54;20391;-76
2023/07/26 07:41:39;;;;;;;12.40;10.67;;;;;;;;;;2614417;39;20897;-77
2023/07/26 07:47:09;;;;;;;9.70;8.87;;;;;;;;;;2612923;54;20395;-77
2023/07/26 07:52:39;;;;;;;12.13;10.90;;;;;;;;;;2611725;54;20378;-78
2023/07/26 07:58:08;;;;;;;12.60;10.17;;;;;;;;;;2609637;54;20462;-78
2023/07/26 08:03:38;;;;;;;10.40;9.60;;;;;;;;;;2611227;39;20976;-76
2023/07/26 08:09:08;;;;;;;11.87;10.87;;;;;;;;;;2609265;54;20411;-76
2023/07/26 08:14:37;;;;;;;13.10;12.20;;;;;;;;;;2610092;54;20386;-76
2023/07/26 08:20:07;;;;;;;13.70;12.77;;;;;;;;;;2610248;54;20379;-76
2023/07/26 08:25:37;;;;;;;13.47;12.23;;;;;;;;;;2610276;54;20418;-77
2023/07/26 08:31:07;;;;;;;13.20;12.20;;;;;;;;;;2613600;54;20414;-77
2023/07/26 08:36:36;;;;;;;13.60;12.50;;;;;;;;;;2614113;54;20932;-78
2023/07/26 08:42:07;;;;;;;13.50;12.43;;;;;;;;;;2615060;54;20392;-77
2023/07/26 08:47:37;;;;;;;16.30;14.67;;;;;;;;;;2614457;54;20387;-77
2023/07/26 08:53:07;;;;;;;14.07;12.80;;;;;;;;;;2614367;54;20478;-78
2023/07/26 09:02:13;;;;;;;12.20;11.40;;;;;;;;;;2613574;54;20535;-77
2023/07/26 09:07:43;;;;;;;14.80;13.60;;;;;;;;;;2614551;54;20450;-77
2023/07/26 09:13:14;;;;;;;10.63;9.73;;;;;;;;;;2614539;54;20359;-77
2023/07/26 09:19:00;;;;;;;12.77;11.40;;;;;;;;;;2614422;54;20391;-77
2023/07/26 09:24:30;;;;;;;9.43;7.23;;;;;;;;;;2610693;54;21223;-73
2023/07/26 09:30:00;;;;;;;11.30;7.40;;;;;;;;;;2612603;54;20418;-74
2023/07/26 09:35:33;;;;;;;5.03;3.50;;;;;;;;;;2615113;54;20387;-74
2023/07/26 09:47:08;;;;;;;3.70;3.00;;;;;;;;;;2613137;54;20375;-75
2023/07/26 09:52:40;;;;;;;5.30;3.83;;;;;;;;;;2614082;54;20383;-74
2023/07/26 10:04:22;;;;;;;6.30;4.27;;;;;;;;;;2614565;54;20382;-75
2023/07/26 10:09:52;;;;;;;8.30;4.73;;;;;;;;;;2614481;54;20377;-75
2023/07/26 10:15:22;;;;;;;7.07;6.37;;;;;;;;;;2614655;54;20359;-75
2023/07/26 10:20:53;;;;;;;6.60;5.63;;;;;;;;;;2614240;54;20395;-75
2023/07/26 10:26:23;;;;;;;6.60;5.00;;;;;;;;;;2611703;54;20427;-75
2023/07/26 10:32:08;;;;;;;8.80;8.30;;;;;;;;;;2610879;54;20411;-76
2023/07/26 10:37:38;;;;;;;9.80;9.20;;;;;;;;;;2610256;54;20421;-78
2023/07/26 10:43:20;;;;;;;10.90;10.30;;;;;;;;;;2608946;54;20383;-76
2023/07/26 10:48:50;;;;;;;10.70;10.10;;;;;;;;;;2610689;54;20523;-77
2023/07/26 11:00:34;;;;;;;9.67;9.07;;;;;;;;;;2610399;54;20431;-76
2023/07/26 11:06:04;;;;;;;10.30;9.70;;;;;;;;;;2610561;54;20362;-76
2023/07/26 11:17:42;;;;;;;11.23;10.60;;;;;;;;;;2609000;54;21571;-76
2023/07/26 11:23:18;;;;;;;10.90;10.30;;;;;;;;;;2608019;54;20386;-77
2023/07/26 11:28:48;;;;;;;11.30;10.60;;;;;;;;;;2609503;39;20759;-78
2023/07/26 11:34:22;;;;;;;10.63;9.93;;;;;;;;;;2613237;54;20430;-78
2023/07/26 11:40:03;;;;;;;12.13;11.30;;;;;;;;;;2612747;54;20355;-78
2023/07/26 11:45:33;;;;;;;11.80;10.80;;;;;;;;;;2608680;54;20415;-77
2023/07/26 11:51:05;;;;;;;13.07;12.00;;;;;;;;;;2612578;46;20460;-76
2023/07/26 11:56:37;;;;;;;12.10;11.30;;;;;;;;;;2613354;39;20748;-76
2023/07/26 12:02:07;;;;;;;11.73;10.63;;;;;;;;;;2608885;47;20674;-76
2023/07/26 12:07:38;;;;;;;11.83;11.03;;;;;;;;;;2610368;54;20423;-76
2023/07/26 12:13:08;;;;;;;11.50;10.80;;;;;;;;;;2612001;54;20403;-76
2023/07/26 12:24:52;;;;;;;11.47;10.87;;;;;;;;;;2614280;31;20813;-77
2023/07/26 12:30:23;;;;;;;11.70;11.00;;;;;;;;;;2613929;54;20346;-77
2023/07/26 12:35:54;;;;;;;12.30;11.50;;;;;;;;;;2614850;54;20382;-78
2023/07/26 12:41:24;;;;;;;8.10;7.40;;;;;;;;;;2613402;54;20358;-76
2023/07/26 12:46:54;;;;;;;8.67;7.27;;;;;;;;;;2614147;54;20387;-75
2023/07/26 12:52:23;;;;;;;11.63;8.20;;;;;;;;;;2613300;54;20419;-74
2023/07/26 13:04:00;;;;;;;12.40;10.50;;;;;;;;;;2612546;54;20418;-75
2023/07/26 13:09:30;;;;;;;10.93;8.70;;;;;;;;;;2612507;54;21061;-75
2023/07/26 13:15:00;;;;;;;10.37;9.07;;;;;;;;;;2610171;54;20407;-77
2023/07/26 13:20:30;;;;;;;10.40;9.50;;;;;;;;;;2614439;54;20504;-77
2023/07/26 13:26:00;;;;;;;11.47;9.93;;;;;;;;;;2614621;54;20412;-77
2023/07/26 13:31:29;;;;;;;11.50;10.70;;;;;;;;;;2614121;54;20395;-77
2023/07/26 13:36:59;;;;;;;16.20;11.57;;;;;;;;;;2614030;54;20463;-77
2023/07/26 13:42:29;;;;;;;13.33;12.53;;;;;;;;;;2612480;54;20391;-78
2023/07/26 13:47:58;;;;;;;12.27;11.37;;;;;;;;;;2612178;54;20507;-78
2023/07/26 13:53:28;;;;;;;12.27;11.47;;;;;;;;;;2612602;54;20359;-77
2023/07/26 14:05:05;;;;;;;11.97;10.77;;;;;;;;;;2608190;54;20390;-77
2023/07/26 14:10:35;;;;;;;11.33;10.40;;;;;;;;;;2612817;54;20436;-78
2023/07/26 14:16:04;;;;;;;11.73;10.93;;;;;;;;;;2612405;54;20370;-77
2023/07/26 14:21:34;;;;;;;12.20;11.20;;;;;;;;;;2612896;39;20910;-78
2023/07/26 14:27:03;;;;;;;11.23;10.13;;;;;;;;;;2612111;54;20428;-78
2023/07/26 14:32:33;;;;;;;11.87;10.83;;;;;;;;;;2612006;54;20398;-78
2023/07/26 14:38:04;;;;;;;11.07;10.30;;;;;;;;;;2614331;39;20488;-78
2023/07/26 14:43:33;;;;;;;11.03;9.93;;;;;;;;;;2615123;54;20404;-79
2023/07/26 14:49:03;;;;;;;9.47;8.83;;;;;;;;;;2612367;54;20375;-78
2023/07/26 14:54:33;;;;;;;8.87;8.27;;;;;;;;;;2614280;54;20359;-78
2023/07/26 15:03:46;;;;;;;9.20;8.37;;;;;;;;;;2613633;54;20551;-78
2023/07/26 15:09:16;;;;;;;9.30;8.53;;;;;;;;;;2613840;54;20435;-78
2023/07/26 15:14:46;;;;;;;9.03;8.33;;;;;;;;;;2613550;54;20440;-79
2023/07/26 15:20:15;;;;;;;9.17;8.50;;;;;;;;;;2612134;54;20390;-78
2023/07/26 15:25:45;;;;;;;10.00;9.10;;;;;;;;;;2613225;54;20410;-78
2023/07/26 15:31:14;;;;;;;8.93;8.33;;;;;;;;;;2614225;54;20530;-78
2023/07/26 15:36:44;;;;;;;8.67;7.97;;;;;;;;;;2613746;54;20351;-78
2023/07/26 15:42:14;;;;;;;8.60;7.83;;;;;;;;;;2613500;39;20753;-77
2023/07/26 15:47:45;;;;;;;9.03;8.33;;;;;;;;;;2614128;54;20941;-76
2023/07/26 15:53:14;;;;;;;11.70;10.80;;;;;;;;;;2612888;54;20587;-78
2023/07/26 15:58:44;;;;;;;8.93;8.33;;;;;;;;;;2611907;54;20394;-77
2023/07/26 16:04:13;;;;;;;9.10;8.50;;;;;;;;;;2613566;54;20585;-77
2023/07/26 16:09:43;;;;;;;8.50;8.00;;;;;;;;;;2613191;54;20390;-77
2023/07/26 16:15:13;;;;;;;8.53;7.93;;;;;;;;;;2613098;54;20503;-77
2023/07/26 16:20:43;;;;;;;8.53;7.93;;;;;;;;;;2612022;39;20720;-78
2023/07/26 16:26:15;;;;;;;9.37;8.60;;;;;;;;;;2611531;54;20431;-78
2023/07/26 16:31:45;;;;;;;7.83;7.23;;;;;;;;;;2612345;54;20358;-78
2023/07/26 16:37:15;;;;;;;8.00;7.50;;;;;;;;;;2612943;39;20843;-77
2023/07/26 16:42:45;;;;;;;10.87;8.03;;;;;;;;;;2613836;54;20974;-78
2023/07/26 16:48:15;;;;;;;9.50;8.80;;;;;;;;;;2611893;54;20957;-78
2023/07/26 16:53:45;;;;;;;9.00;8.50;;;;;;;;;;2612923;54;20423;-78
2023/07/26 16:59:15;;;;;;;9.40;8.50;;;;;;;;;;2613727;54;20398;-77
2023/07/26 17:08:14;;;;;;;9.03;8.13;;;;;;;;;;2614043;54;20415;-78
2023/07/26 17:13:44;;;;;;;8.60;8.10;;;;;;;;;;2613786;54;20363;-77
2023/07/26 17:19:13;;;;;;;8.23;7.53;;;;;;;;;;2613296;54;20413;-78
2023/07/26 17:24:43;;;;;;;9.13;8.53;;;;;;;;;;2614438;54;20395;-78
2023/07/26 17:30:13;;;;;;;10.10;9.40;;;;;;;;;;2614675;54;20394;-78
2023/07/26 17:35:43;;;;;;;9.03;8.53;;;;;;;;;;2613855;54;20407;-78
2023/07/26 17:41:14;;;;;;;9.20;8.47;;;;;;;;;;2613507;54;20390;-78
2023/07/26 17:46:43;;;;;;;9.13;8.53;;;;;;;;;;2614389;54;20388;-78
2023/07/26 17:52:13;;;;;;;10.10;9.50;;;;;;;;;;2614336;54;20376;-78
2023/07/26 17:57:43;;;;;;;8.90;8.30;;;;;;;;;;2613456;54;20439;-79
2023/07/26 18:03:13;;;;;;;8.93;7.80;;;;;;;;;;2610849;46;20507;-78
2023/07/26 18:08:43;;;;;;;9.10;8.53;;;;;;;;;;2613526;54;20523;-79
2023/07/26 18:14:12;;;;;;;8.60;8.10;;;;;;;;;;2614549;54;20390;-79
2023/07/26 18:19:42;;;;;;;9.80;9.20;;;;;;;;;;2614472;54;20867;-77
2023/07/26 18:25:12;;;;;;;9.17;8.57;;;;;;;;;;2613698;54;20500;-77
2023/07/26 18:30:41;;;;;;;10.13;9.43;;;;;;;;;;2613006;54;20391;-77
2023/07/26 18:36:13;;;;;;;11.80;10.60;;;;;;;;;;2614175;54;21097;-78
2023/07/26 18:41:43;;;;;;;10.67;9.97;;;;;;;;;;2613765;46;20422;-76
2023/07/26 18:47:12;;;;;;;10.30;9.50;;;;;;;;;;2614634;54;20513;-78
2023/07/26 18:52:42;;;;;;;9.30;8.53;;;;;;;;;;2614199;54;20395;-77
2023/07/26 18:58:12;;;;;;;7.83;7.23;;;;;;;;;;2613024;54;20407;-78
2023/07/26 19:03:41;;;;;;;13.77;12.77;;;;;;;;;;2614115;54;20395;-75
2023/07/26 19:18:38;;;;;;;8.00;6.97;;;;;;;;;;2612373;54;20390;-77
2023/07/26 19:24:08;;;;;;;7.20;6.70;;;;;;;;;;2612842;54;20399;-77
2023/07/26 19:29:37;;;;;;;7.10;6.57;;;;;;;;;;2610781;54;20420;-76
2023/07/26 19:35:06;;;;;;;7.50;6.80;;;;;;;;;;2612054;54;20999;-77
2023/07/26 19:40:38;;;;;;;7.87;7.17;;;;;;;;;;2612631;54;20383;-76
2023/07/26 19:46:10;;;;;;;7.70;7.10;;;;;;;;;;2612846;54;20390;-77
2023/07/26 19:51:40;;;;;;;11.33;7.23;;;;;;;;;;2614287;54;20367;-77
2023/07/26 19:57:09;;;;;;;12.53;8.33;;;;;;;;;;2613950;54;20355;-78
2023/07/26 20:02:39;;;;;;;9.83;6.87;;;;;;;;;;2614120;54;20483;-78
2023/07/26 20:08:08;;;;;;;11.33;8.00;;;;;;;;;;2613534;54;20395;-78
2023/07/26 20:13:41;;;;;;;7.13;6.53;;;;;;;;;;2614048;54;20375;-78
2023/07/26 20:19:11;;;;;;;8.27;6.87;;;;;;;;;;2612256;39;20772;-79
2023/07/26 20:24:42;;;;;;;7.20;6.50;;;;;;;;;;2613604;54;20378;-79
2023/07/26 20:30:12;;;;;;;9.63;7.53;;;;;;;;;;2613971;54;20394;-78
2023/07/26 20:35:43;;;;;;;7.83;7.07;;;;;;;;;;2614981;54;20402;-78
2023/07/26 20:41:13;;;;;;;7.43;6.73;;;;;;;;;;2613247;54;20411;-77
2023/07/26 20:46:42;;;;;;;18.83;7.43;;;;;;;;;;2613542;54;20387;-78
2023/07/26 20:52:12;;;;;;;10.13;7.70;;;;;;;;;;2613912;54;20370;-78
2023/07/26 20:57:42;;;;;;;11.27;7.20;;;;;;;;;;2612421;54;20386;-78
2023/07/26 21:03:11;;;;;;;10.23;6.87;;;;;;;;;;2613911;54;20410;-78
2023/07/26 21:14:48;;;;;;;6.70;6.10;;;;;;;;;;2608741;54;20371;-77
2023/07/26 21:20:18;;;;;;;7.90;7.20;;;;;;;;;;2613652;54;20510;-78
2023/07/26 21:25:48;;;;;;;7.03;6.33;;;;;;;;;;2610823;54;20378;-77
2023/07/26 21:31:18;;;;;;;7.47;6.20;;;;;;;;;;2610158;54;20434;-78
2023/07/26 21:36:48;;;;;;;6.70;6.10;;;;;;;;;;2610495;54;20395;-78
2023/07/26 21:42:17;;;;;;;8.07;7.37;;;;;;;;;;2610474;54;20949;-78
2023/07/26 21:47:47;;;;;;;7.50;6.80;;;;;;;;;;2609562;54;20415;-78
2023/07/26 21:53:17;;;;;;;8.00;7.20;;;;;;;;;;2612562;54;20493;-78
2023/07/26 21:58:46;;;;;;;8.07;6.80;;;;;;;;;;2613829;54;20394;-79
2023/07/26 22:04:16;;;;;;;7.50;6.90;;;;;;;;;;2612170;54;20382;-79
2023/07/26 22:13:20;;;;;;;8.60;7.80;;;;;;;;;;2613233;54;20954;-77
2023/07/26 22:18:50;;;;;;;10.43;7.47;;;;;;;;;;2610831;54;20419;-79
2023/07/26 22:24:19;;;;;;;7.67;7.00;;;;;;;;;;2610928;54;20370;-78
2023/07/26 22:29:49;;;;;;;7.77;7.17;;;;;;;;;;2611222;39;20790;-79
2023/07/26 22:35:18;;;;;;;7.93;7.10;;;;;;;;;;2610865;54;20515;-77
2023/07/26 22:40:48;;;;;;;7.40;6.80;;;;;;;;;;2610902;54;20407;-79
2023/07/26 22:46:18;;;;;;;9.20;7.30;;;;;;;;;;2610115;54;20391;-78
2023/07/26 22:51:47;;;;;;;7.90;7.03;;;;;;;;;;2611424;54;20997;-77
2023/07/26 22:57:17;;;;;;;7.60;7.10;;;;;;;;;;2609126;54;20952;-77
2023/07/26 23:02:47;;;;;;;7.83;7.23;;;;;;;;;;2613092;54;20917;-78
2023/07/26 23:08:17;;;;;;;8.20;7.13;;;;;;;;;;2609544;54;20411;-78
2023/07/26 23:14:05;;;;;;;10.67;7.53;;;;;;;;;;2610911;39;21104;-78
2023/07/26 23:19:35;;;;;;;8.63;6.93;;;;;;;;;;2610560;54;20374;-78
2023/07/26 23:25:05;;;;;;;7.20;6.73;;;;;;;;;;2610720;54;20366;-79
2023/07/26 23:30:35;;;;;;;7.70;7.17;;;;;;;;;;2610134;54;20408;-78
2023/07/26 23:36:05;;;;;;;7.83;7.20;;;;;;;;;;2611225;46;20382;-78
2023/07/26 23:41:34;;;;;;;7.17;6.63;;;;;;;;;;2610215;54;20432;-78
2023/07/26 23:47:04;;;;;;;8.50;7.47;;;;;;;;;;2610273;54;20370;-78
2023/07/26 23:52:34;;;;;;;7.87;7.17;;;;;;;;;;2609629;54;20354;-77
2023/07/26 23:58:03;;;;;;;9.33;7.73;;;;;;;;;;2610391;54;20479;-77
